Time;durP1;ratioP1;P1;durP2;ratioP2;P2;SDS_P1;SDS_P2;PMS_P1;PMS_P2;Temp;Humidity;BMP_temperature;BMP_pressure;BME280_temperature;BME280_humidity;BME280_pressure;Samples;Min_cycle;Max_cycle;Signal;HPM_P1;HPM_P2
2021/08/10 00:00:36;;;;;;;13.18;4.72;;;16.10;99.90;;;;;;5031245;28;20064;-61
2021/08/10 00:03:03;;;;;;;10.70;4.30;;;16.00;99.90;;;;;;5029669;28;20598;-59
2021/08/10 00:05:28;;;;;;;12.60;4.65;;;16.00;99.90;;;;;;5031260;28;20527;-62
2021/08/10 00:07:55;;;;;;;10.32;4.25;;;16.00;99.90;;;;;;5020123;28;20025;-60
2021/08/10 00:10:21;;;;;;;11.32;4.50;;;16.00;99.90;;;;;;5029827;28;20048;-60
2021/08/10 00:12:47;;;;;;;12.20;4.57;;;15.90;99.90;;;;;;5030057;28;20140;-60
2021/08/10 00:15:13;;;;;;;12.57;4.68;;;15.90;99.90;;;;;;5030930;28;20492;-60
2021/08/10 00:17:38;;;;;;;11.48;4.80;;;15.80;99.90;;;;;;5030434;28;20116;-61
2021/08/10 00:20:05;;;;;;;12.98;5.00;;;15.90;99.90;;;;;;5030933;28;20059;-60
2021/08/10 00:22:31;;;;;;;11.07;4.78;;;15.80;99.90;;;;;;5030236;28;20036;-60
2021/08/10 00:24:57;;;;;;;10.55;4.80;;;15.80;99.90;;;;;;5031058;28;20025;-60
2021/08/10 00:27:23;;;;;;;9.85;4.65;;;15.80;99.90;;;;;;5030058;28;20048;-61
2021/08/10 00:29:48;;;;;;;12.48;4.90;;;15.80;99.90;;;;;;5030863;28;20056;-61
2021/08/10 00:32:14;;;;;;;13.65;4.95;;;15.70;99.90;;;;;;5028807;28;20056;-60
2021/08/10 00:34:40;;;;;;;10.90;4.53;;;15.70;99.90;;;;;;5030848;28;20052;-60
2021/08/10 00:37:07;;;;;;;9.95;5.00;;;15.70;99.90;;;;;;5030330;28;20108;-62
2021/08/10 00:39:34;;;;;;;14.20;5.35;;;15.60;99.90;;;;;;5029419;28;20485;-60
2021/08/10 00:42:00;;;;;;;12.70;5.25;;;15.60;99.90;;;;;;5030169;28;20041;-62
2021/08/10 00:44:26;;;;;;;12.60;5.22;;;15.60;99.90;;;;;;5030524;28;20033;-61
2021/08/10 00:46:52;;;;;;;10.85;4.75;;;15.50;99.90;;;;;;5030873;28;20076;-60
2021/08/10 00:49:18;;;;;;;10.90;4.97;;;15.40;99.90;;;;;;5029734;28;20040;-61
2021/08/10 00:51:45;;;;;;;11.13;5.10;;;15.40;99.90;;;;;;5030808;28;20472;-62
2021/08/10 00:54:11;;;;;;;12.77;5.28;;;15.40;99.90;;;;;;5030085;28;20096;-60
2021/08/10 00:56:37;;;;;;;10.80;4.57;;;15.30;99.90;;;;;;5030756;28;20033;-61
2021/08/10 00:59:03;;;;;;;13.80;5.20;;;15.30;99.90;;;;;;5029112;28;20466;-59
2021/08/10 01:01:29;;;;;;;14.93;5.32;;;15.40;99.90;;;;;;5030564;28;20127;-61
2021/08/10 01:03:54;;;;;;;12.43;5.05;;;15.30;99.90;;;;;;5029835;28;20069;-60
2021/08/10 01:06:50;;;;;;;13.75;5.00;;;15.30;99.90;;;;;;5030484;28;20036;-62
2021/08/10 01:09:27;;;;;;;;;;;15.20;99.90;;;;;;5022860;28;20089;-61
2021/08/10 01:12:07;;;;;;;11.02;4.78;;;15.30;99.90;;;;;;5033191;28;19909;-60
2021/08/10 01:14:40;;;;;;;11.32;4.93;;;15.20;99.90;;;;;;5033822;28;20037;-60
2021/08/10 01:17:15;;;;;;;12.70;4.80;;;15.30;99.90;;;;;;5034160;28;20479;-60
2021/08/10 01:19:58;;;;;;;11.98;5.30;;;15.20;99.90;;;;;;5033039;28;20037;-61
2021/08/10 01:22:27;;;;;;;19.15;5.13;;;15.10;99.90;;;;;;5020648;28;20033;-61
2021/08/10 01:25:05;;;;;;;15.05;5.35;;;15.10;99.90;;;;;;5034018;28;20033;-61
2021/08/10 01:27:51;;;;;;;9.90;4.70;;;15.10;99.90;;;;;;5032765;28;20033;-61
2021/08/10 01:30:29;;;;;;;11.27;4.95;;;15.10;99.90;;;;;;5026263;28;20406;-62
2021/08/10 01:32:56;;;;;;;10.93;4.75;;;15.10;99.90;;;;;;5033215;28;20033;-61
2021/08/10 01:35:24;;;;;;;16.10;4.93;;;15.00;99.90;;;;;;5033937;28;20053;-61
2021/08/10 01:37:55;;;;;;;13.85;5.15;;;15.00;99.90;;;;;;5033016;28;20037;-60
2021/08/10 01:40:25;;;;;;;17.42;5.00;;;15.00;99.90;;;;;;5017789;28;20029;-59
2021/08/10 01:42:54;;;;;;;11.57;5.28;;;15.00;99.90;;;;;;5012759;28;20034;-61
2021/08/10 01:45:20;;;;;;;11.20;5.07;;;15.00;99.90;;;;;;5032039;28;20033;-61
2021/08/10 01:47:48;;;;;;;20.17;5.20;;;14.90;99.90;;;;;;5032924;28;20033;-62
2021/08/10 01:50:14;;;;;;;14.27;4.88;;;14.90;99.90;;;;;;5033566;28;20085;-61
2021/08/10 01:52:42;;;;;;;11.50;4.60;;;14.90;99.90;;;;;;5032836;28;20656;-61
2021/08/10 01:55:09;;;;;;;14.07;5.07;;;14.90;99.90;;;;;;5033481;28;20033;-61
2021/08/10 01:57:36;;;;;;;9.05;4.70;;;14.80;99.90;;;;;;5031848;28;20117;-60
2021/08/10 02:00:04;;;;;;;10.35;5.03;;;14.80;99.90;;;;;;5033399;28;20074;-61
2021/08/10 02:02:32;;;;;;;11.68;4.65;;;14.80;99.90;;;;;;5032331;28;20518;-61
2021/08/10 02:04:59;;;;;;;13.57;4.72;;;14.80;99.90;;;;;;5033171;28;20120;-61
2021/08/10 02:07:25;;;;;;;13.25;4.80;;;14.80;99.90;;;;;;5033583;28;20033;-60
2021/08/10 02:09:53;;;;;;;12.25;5.03;;;14.70;99.90;;;;;;5031421;28;20033;-61
2021/08/10 02:12:19;;;;;;;13.52;5.18;;;14.70;99.90;;;;;;5033526;28;20051;-60
2021/08/10 02:14:45;;;;;;;18.48;5.50;;;14.80;99.90;;;;;;5032539;28;20102;-60
2021/08/10 02:17:15;;;;;;;11.38;5.47;;;14.80;99.90;;;;;;5033295;28;20108;-61
2021/08/10 02:19:41;;;;;;;13.75;6.10;;;14.80;99.90;;;;;;5032271;28;20026;-62
2021/08/10 02:22:09;;;;;;;12.57;5.68;;;14.80;99.90;;;;;;5033200;28;20030;-63
2021/08/10 02:24:48;;;;;;;18.15;7.22;;;14.70;99.90;;;;;;5032073;28;20438;-61
2021/08/10 02:27:25;;;;;;;15.10;6.10;;;14.70;99.90;;;;;;5032756;28;20033;-60
2021/08/10 02:29:52;;;;;;;15.50;5.90;;;14.80;99.90;;;;;;5032230;28;20055;-61
2021/08/10 02:32:23;;;;;;;15.13;5.88;;;14.70;99.90;;;;;;5032736;28;20033;-61
2021/08/10 02:34:50;;;;;;;16.30;6.65;;;14.80;99.90;;;;;;5032083;28;20065;-60
2021/08/10 02:37:18;;;;;;;11.38;5.28;;;14.70;99.90;;;;;;5032716;28;20034;-61
2021/08/10 02:39:46;;;;;;;15.60;6.25;;;14.60;99.90;;;;;;5031763;28;20053;-62
2021/08/10 02:42:12;;;;;;;18.45;6.07;;;14.70;99.90;;;;;;5032830;28;20097;-61
2021/08/10 02:44:42;;;;;;;17.42;6.38;;;14.70;99.90;;;;;;5031645;28;20037;-62
2021/08/10 02:47:08;;;;;;;13.48;6.50;;;14.80;99.90;;;;;;5032706;28;20140;-61
2021/08/10 02:49:34;;;;;;;14.50;5.95;;;14.70;99.90;;;;;;5031573;28;20530;-61
2021/08/10 02:51:59;;;;;;;17.77;6.78;;;14.70;99.90;;;;;;5032584;28;20040;-62
2021/08/10 02:54:26;;;;;;;18.63;7.03;;;14.70;99.90;;;;;;5031490;28;20069;-61
2021/08/10 02:57:02;;;;;;;15.18;6.60;;;14.70;99.90;;;;;;5031825;28;20026;-60
2021/08/10 02:59:37;;;;;;;16.58;6.72;;;14.60;99.90;;;;;;5031315;28;20038;-61
2021/08/10 03:02:19;;;;;;;15.77;6.18;;;14.60;99.90;;;;;;5032495;28;20529;-60
2021/08/10 03:04:50;;;;;;;17.08;6.68;;;14.60;99.90;;;;;;5031247;28;20124;-61
2021/08/10 03:07:18;;;;;;;18.98;6.50;;;14.60;99.90;;;;;;5031177;28;20083;-61
2021/08/10 03:09:46;;;;;;;16.40;5.90;;;14.70;99.90;;;;;;5031283;28;20018;-60
2021/08/10 03:12:13;;;;;;;15.73;6.00;;;14.60;99.90;;;;;;5032279;28;20430;-61
2021/08/10 03:14:40;;;;;;;19.58;6.53;;;14.70;99.90;;;;;;5031511;28;20021;-60
2021/08/10 03:17:08;;;;;;;21.27;6.32;;;14.60;99.90;;;;;;5032307;28;20032;-62
2021/08/10 03:19:38;;;;;;;18.45;6.20;;;14.60;99.90;;;;;;5031121;28;20455;-61
2021/08/10 03:22:05;;;;;;;14.88;5.75;;;14.60;99.90;;;;;;5031588;28;20032;-60
2021/08/10 03:24:32;;;;;;;15.68;5.78;;;14.60;99.90;;;;;;5031300;28;20033;-60
2021/08/10 03:27:01;;;;;;;16.10;6.25;;;14.50;99.90;;;;;;5031730;28;20038;-60
2021/08/10 03:29:28;;;;;;;16.85;5.75;;;14.50;99.90;;;;;;5031207;28;20403;-63
2021/08/10 03:31:54;;;;;;;17.35;6.28;;;14.50;99.90;;;;;;5031033;28;20393;-62
2021/08/10 03:34:23;;;;;;;13.77;5.68;;;14.50;99.90;;;;;;5031053;28;20032;-62
2021/08/10 03:36:49;;;;;;;13.55;5.72;;;14.50;99.90;;;;;;5031655;28;20034;-60
2021/08/10 03:39:16;;;;;;;15.55;6.47;;;14.40;99.90;;;;;;5030747;28;20100;-61
2021/08/10 03:41:43;;;;;;;12.00;5.63;;;14.50;99.90;;;;;;5031813;28;20033;-61
2021/08/10 03:44:09;;;;;;;19.50;6.57;;;14.50;99.90;;;;;;5030674;28;20025;-61
2021/08/10 03:46:36;;;;;;;19.20;6.40;;;14.50;99.90;;;;;;5021438;28;20030;-62
2021/08/10 03:49:02;;;;;;;15.45;6.50;;;14.40;99.90;;;;;;5025986;28;20043;-61
2021/08/10 03:51:30;;;;;;;19.10;6.00;;;14.40;99.90;;;;;;5031052;28;20036;-62
2021/08/10 03:53:56;;;;;;;23.23;6.80;;;14.50;99.90;;;;;;5030743;28;20034;-61
2021/08/10 03:56:26;;;;;;;15.38;5.43;;;14.50;99.90;;;;;;5031538;28;20021;-61
2021/08/10 03:58:54;;;;;;;25.23;6.60;;;14.50;99.90;;;;;;5029420;28;20423;-62
2021/08/10 04:01:23;;;;;;;15.98;6.43;;;14.40;99.90;;;;;;5031148;28;20029;-60
2021/08/10 04:03:49;;;;;;;23.38;6.70;;;14.40;99.90;;;;;;5030460;28;20155;-61
2021/08/10 04:06:15;;;;;;;16.85;6.25;;;14.40;99.90;;;;;;5029351;28;20061;-62
2021/08/10 04:08:43;;;;;;;21.73;6.60;;;14.40;99.90;;;;;;5030754;28;20124;-61
2021/08/10 04:11:09;;;;;;;17.73;6.28;;;14.30;99.90;;;;;;5031220;28;20471;-62
2021/08/10 04:13:35;;;;;;;21.13;6.10;;;14.40;99.90;;;;;;5029832;28;20030;-61
2021/08/10 04:16:04;;;;;;;25.17;6.85;;;14.40;99.90;;;;;;5031227;28;20022;-62
2021/08/10 04:18:32;;;;;;;21.90;6.47;;;14.30;99.90;;;;;;5030382;28;20065;-61
2021/08/10 04:20:58;;;;;;;17.42;6.75;;;14.30;99.90;;;;;;5031040;28;20026;-60
2021/08/10 04:23:24;;;;;;;18.15;6.72;;;14.30;99.90;;;;;;5030228;28;20037;-61
2021/08/10 04:25:50;;;;;;;21.50;6.80;;;14.30;99.90;;;;;;5030925;28;20395;-61
2021/08/10 04:28:16;;;;;;;19.42;7.43;;;14.20;99.90;;;;;;5030420;28;20081;-60
2021/08/10 04:30:43;;;;;;;19.05;6.45;;;14.30;99.90;;;;;;5030112;28;20109;-61
2021/08/10 04:33:09;;;;;;;26.13;8.15;;;14.20;99.90;;;;;;5030941;28;20124;-62
2021/08/10 04:35:35;;;;;;;19.67;6.88;;;14.20;99.90;;;;;;5029844;28;20050;-61
2021/08/10 04:38:02;;;;;;;19.10;7.75;;;14.20;99.90;;;;;;5030840;28;20029;-63
2021/08/10 04:40:28;;;;;;;26.05;7.05;;;14.10;99.90;;;;;;5028822;28;20037;-61
2021/08/10 04:42:55;;;;;;;16.30;7.05;;;14.20;99.90;;;;;;5033733;28;20117;-62
2021/08/10 04:45:21;;;;;;;22.05;7.68;;;14.20;99.90;;;;;;5033961;28;20124;-61
2021/08/10 04:47:47;;;;;;;21.27;7.20;;;14.10;99.90;;;;;;5033633;28;20492;-61
2021/08/10 04:50:13;;;;;;;22.88;7.35;;;14.10;99.90;;;;;;5034032;28;20056;-60
2021/08/10 04:52:38;;;;;;;23.08;7.32;;;14.00;99.90;;;;;;5034685;28;20032;-61
2021/08/10 04:55:06;;;;;;;29.65;7.63;;;14.10;99.90;;;;;;5034167;28;20025;-61
2021/08/10 04:57:31;;;;;;;25.67;8.07;;;14.10;99.90;;;;;;5034975;28;20507;-59
2021/08/10 04:59:57;;;;;;;23.30;6.95;;;14.10;99.90;;;;;;5032087;28;20046;-61
2021/08/10 05:02:23;;;;;;;29.00;7.45;;;14.10;99.90;;;;;;5034568;28;20057;-61
2021/08/10 05:04:48;;;;;;;24.15;7.53;;;14.10;99.90;;;;;;5033488;28;20511;-62
2021/08/10 05:07:14;;;;;;;21.70;7.15;;;14.10;99.90;;;;;;5034769;28;20064;-60
2021/08/10 05:09:41;;;;;;;25.60;7.60;;;14.10;99.90;;;;;;5033478;28;20036;-61
2021/08/10 05:12:07;;;;;;;26.17;7.75;;;14.10;99.90;;;;;;5034611;28;20021;-62
2021/08/10 05:14:33;;;;;;;28.60;7.65;;;14.10;99.90;;;;;;5033679;28;20095;-59
2021/08/10 05:16:59;;;;;;;22.88;7.60;;;14.10;99.90;;;;;;5034282;28;20052;-59
2021/08/10 05:19:25;;;;;;;24.75;8.65;;;14.20;99.90;;;;;;5033605;28;20120;-60
2021/08/10 05:21:51;;;;;;;19.98;7.40;;;14.10;99.90;;;;;;5034166;28;20101;-61
2021/08/10 05:24:16;;;;;;;21.45;8.02;;;14.20;99.90;;;;;;5033216;28;20136;-62
2021/08/10 05:26:42;;;;;;;38.08;8.25;;;14.20;99.90;;;;;;5034000;28;20037;-59
2021/08/10 05:29:08;;;;;;;25.33;11.20;;;14.20;99.90;;;;;;5033007;28;20045;-60
2021/08/10 05:31:33;;;;;;;69.47;11.65;;;14.30;99.90;;;;;;5032698;28;20037;-62
2021/08/10 05:33:59;;;;;;;24.83;8.32;;;14.30;99.90;;;;;;5031798;28;20029;-61
2021/08/10 05:36:25;;;;;;;22.23;7.60;;;14.30;99.90;;;;;;5034071;28;20100;-62
2021/08/10 05:38:53;;;;;;;24.77;8.57;;;14.30;99.90;;;;;;5033585;28;20115;-61
2021/08/10 05:41:20;;;;;;;25.15;7.82;;;14.40;99.90;;;;;;5033598;28;20487;-62
2021/08/10 05:43:46;;;;;;;23.95;9.10;;;14.40;99.90;;;;;;5031963;28;20033;-62
2021/08/10 05:46:12;;;;;;;24.80;8.05;;;14.40;99.90;;;;;;5033062;28;20045;-60
2021/08/10 05:48:38;;;;;;;25.17;7.85;;;14.50;99.90;;;;;;5033585;28;20132;-60
2021/08/10 05:51:04;;;;;;;25.52;8.50;;;14.50;99.90;;;;;;5032858;28;20456;-60
2021/08/10 05:53:31;;;;;;;23.75;8.50;;;14.50;99.90;;;;;;5033405;28;20039;-61
2021/08/10 05:55:58;;;;;;;29.55;8.65;;;14.60;99.90;;;;;;5032848;28;20030;-62
2021/08/10 05:58:23;;;;;;;32.83;9.23;;;14.70;99.90;;;;;;5032518;28;20031;-62
2021/08/10 06:00:49;;;;;;;29.25;9.57;;;14.70;99.90;;;;;;5032630;28;20117;-61
2021/08/10 06:03:15;;;;;;;25.80;9.50;;;14.80;99.90;;;;;;5032621;28;20439;-62
2021/08/10 06:05:41;;;;;;;25.67;8.68;;;14.80;99.90;;;;;;5032395;28;20091;-62
2021/08/10 06:08:07;;;;;;;23.85;8.60;;;14.90;99.90;;;;;;5033420;28;20033;-61
2021/08/10 06:10:32;;;;;;;30.88;9.65;;;15.10;99.90;;;;;;5032617;28;20080;-62
2021/08/10 06:12:58;;;;;;;26.10;9.30;;;15.20;99.90;;;;;;5033149;28;20025;-62
2021/08/10 06:15:24;;;;;;;21.77;9.75;;;15.30;99.90;;;;;;5031091;28;20036;-61
2021/08/10 06:17:50;;;;;;;31.48;10.82;;;15.30;99.90;;;;;;5033347;28;20037;-63
2021/08/10 06:20:16;;;;;;;19.45;9.50;;;15.30;99.90;;;;;;5032131;28;20026;-61
2021/08/10 06:22:41;;;;;;;24.65;10.45;;;15.30;99.90;;;;;;5033090;28;20032;-62
2021/08/10 06:25:08;;;;;;;23.00;9.20;;;15.40;99.90;;;;;;5032141;28;20026;-62
2021/08/10 06:27:34;;;;;;;25.50;9.30;;;15.40;99.90;;;;;;5032551;28;20030;-64
2021/08/10 06:29:59;;;;;;;19.92;9.50;;;15.30;99.90;;;;;;5032317;28;20040;-63
2021/08/10 06:32:25;;;;;;;25.13;9.25;;;15.40;99.90;;;;;;5032668;28;20025;-60
2021/08/10 06:34:51;;;;;;;31.95;9.00;;;15.40;99.90;;;;;;5032237;28;20379;-61
2021/08/10 06:37:16;;;;;;;27.23;9.77;;;15.40;99.90;;;;;;5032496;28;20468;-61
2021/08/10 06:39:42;;;;;;;16.95;7.95;;;15.40;99.90;;;;;;5031894;28;20467;-61
2021/08/10 06:42:08;;;;;;;22.67;8.60;;;15.40;99.90;;;;;;5032653;28;20550;-61
2021/08/10 06:44:34;;;;;;;30.27;9.50;;;15.40;99.90;;;;;;5031458;28;20464;-61
2021/08/10 06:47:00;;;;;;;30.33;8.82;;;15.40;99.90;;;;;;5032515;28;20076;-61
2021/08/10 06:49:27;;;;;;;20.98;8.38;;;15.50;99.90;;;;;;5031429;28;20033;-61
2021/08/10 06:51:53;;;;;;;27.23;9.25;;;15.50;99.90;;;;;;5032479;28;20136;-62
2021/08/10 06:54:20;;;;;;;20.65;8.30;;;15.50;99.90;;;;;;5032294;28;20037;-62
2021/08/10 06:56:45;;;;;;;19.05;7.20;;;15.60;99.90;;;;;;5031944;28;20022;-63
2021/08/10 06:59:11;;;;;;;22.40;8.05;;;15.60;99.90;;;;;;5032310;28;20044;-60
2021/08/10 07:01:37;;;;;;;21.30;8.63;;;15.60;99.90;;;;;;5031171;28;20423;-63
2021/08/10 07:04:03;;;;;;;18.58;7.00;;;15.60;99.90;;;;;;5032226;28;20033;-62
2021/08/10 07:06:30;;;;;;;24.08;7.13;;;15.60;99.90;;;;;;5030283;28;20045;-61
2021/08/10 07:08:59;;;;;;;20.98;7.75;;;15.60;99.90;;;;;;5031848;28;20029;-62
2021/08/10 07:11:25;;;;;;;19.52;6.78;;;15.50;99.90;;;;;;5030991;28;20064;-60
2021/08/10 07:13:51;;;;;;;19.25;7.60;;;15.70;99.90;;;;;;5031692;28;20053;-61
2021/08/10 07:16:16;;;;;;;21.92;7.13;;;15.70;99.90;;;;;;5031146;28;20383;-61
2021/08/10 07:18:42;;;;;;;20.00;6.95;;;15.70;99.90;;;;;;5032005;28;20022;-59
2021/08/10 07:21:08;;;;;;;23.50;6.97;;;15.80;99.90;;;;;;5031268;28;20073;-61
2021/08/10 07:23:33;;;;;;;16.63;6.88;;;15.80;99.90;;;;;;5031496;28;20091;-62
2021/08/10 07:25:59;;;;;;;18.13;7.40;;;15.80;99.90;;;;;;5031209;28;20048;-59
2021/08/10 07:28:25;;;;;;;22.25;6.82;;;15.80;99.90;;;;;;5020361;28;20060;-60
2021/08/10 07:30:50;;;;;;;16.10;6.35;;;16.00;99.90;;;;;;5031102;28;20033;-60
2021/08/10 07:33:16;;;;;;;12.75;6.07;;;16.20;99.90;;;;;;5031720;28;20029;-64
2021/08/10 07:35:42;;;;;;;14.13;5.78;;;16.40;99.90;;;;;;5030760;28;20091;-60
2021/08/10 07:38:07;;;;;;;14.20;5.82;;;16.60;99.90;;;;;;5031710;28;20392;-61
2021/08/10 07:40:33;;;;;;;20.73;6.65;;;17.00;99.90;;;;;;5030388;28;20054;-60
2021/08/10 07:42:59;;;;;;;17.10;6.05;;;17.40;99.90;;;;;;5031372;28;20029;-61
2021/08/10 07:45:25;;;;;;;14.15;5.72;;;17.60;99.90;;;;;;5030530;28;20487;-61
2021/08/10 07:47:51;;;;;;;14.82;6.05;;;17.80;99.90;;;;;;5031503;28;20079;-60
2021/08/10 07:50:18;;;;;;;22.58;8.13;;;18.00;99.90;;;;;;5030578;28;20389;-61
2021/08/10 07:52:47;;;;;;;12.98;5.05;;;18.00;99.90;;;;;;5031475;28;20030;-60
2021/08/10 07:55:13;;;;;;;15.65;5.90;;;18.00;99.90;;;;;;5030576;28;20517;-61
2021/08/10 07:57:41;;;;;;;12.07;4.95;;;18.30;99.90;;;;;;5031056;28;20543;-62
2021/08/10 08:00:07;;;;;;;15.23;5.60;;;18.60;99.90;;;;;;5030082;28;20139;-63
2021/08/10 08:02:33;;;;;;;15.18;4.85;;;18.80;99.90;;;;;;5031187;28;20116;-63
2021/08/10 08:04:59;;;;;;;13.45;5.30;;;18.90;99.90;;;;;;5030125;28;20163;-62
2021/08/10 08:07:24;;;;;;;15.45;5.57;;;19.10;99.90;;;;;;5030051;28;20034;-61
2021/08/10 08:09:50;;;;;;;14.98;4.75;;;19.20;99.90;;;;;;5031140;28;20104;-61
2021/08/10 08:12:16;;;;;;;14.00;5.40;;;19.60;99.90;;;;;;5030452;28;20037;-64
2021/08/10 08:14:44;;;;;;;12.63;5.00;;;19.70;99.90;;;;;;5030895;28;20035;-62
2021/08/10 08:17:11;;;;;;;13.15;4.95;;;19.70;99.90;;;;;;5030251;28;20331;-61
2021/08/10 08:19:37;;;;;;;19.50;5.13;;;19.40;99.90;;;;;;5030917;28;20044;-62
2021/08/10 08:22:03;;;;;;;15.73;5.50;;;19.20;99.90;;;;;;5030115;28;20018;-61
2021/08/10 08:24:29;;;;;;;15.88;4.85;;;19.20;99.90;;;;;;5030976;28;20394;-63
2021/08/10 08:26:54;;;;;;;13.60;4.97;;;19.10;99.90;;;;;;5029812;28;20033;-61
2021/08/10 08:29:20;;;;;;;9.88;4.35;;;18.80;99.90;;;;;;5030626;28;20385;-60
2021/08/10 08:31:46;;;;;;;13.20;4.55;;;18.60;99.90;;;;;;5029947;28;20029;-61
2021/08/10 08:34:12;;;;;;;15.50;4.97;;;18.50;99.90;;;;;;5030848;28;20033;-60
2021/08/10 08:36:37;;;;;;;9.20;4.20;;;18.70;99.90;;;;;;5028758;28;20033;-61
2021/08/10 08:39:03;;;;;;;10.77;4.63;;;19.20;99.90;;;;;;5030727;28;20090;-62
2021/08/10 08:41:29;;;;;;;7.78;4.63;;;19.70;99.90;;;;;;5030000;28;20043;-61
2021/08/10 08:43:54;;;;;;;10.32;4.68;;;20.00;99.90;;;;;;5030153;28;20116;-61
2021/08/10 08:46:22;;;;;;;16.08;4.72;;;19.90;99.90;;;;;;5030268;28;20029;-61
2021/08/10 08:48:48;;;;;;;18.65;4.30;;;19.90;99.90;;;;;;5030690;28;20034;-61
2021/08/10 08:51:17;;;;;;;12.98;4.30;;;19.90;99.90;;;;;;5029547;28;20096;-61
2021/08/10 08:53:54;;;;;;;13.90;4.68;;;20.30;99.90;;;;;;5031030;28;20029;-61
2021/08/10 08:56:24;;;;;;;9.80;3.83;;;20.60;99.90;;;;;;5029916;28;20041;-60
2021/08/10 08:58:55;;;;;;;10.18;4.50;;;20.60;99.90;;;;;;5030359;28;20028;-61
2021/08/10 09:01:21;;;;;;;8.32;4.07;;;20.50;99.90;;;;;;5029870;28;20034;-60
2021/08/10 09:03:46;;;;;;;16.35;4.25;;;20.80;99.90;;;;;;5030382;28;20040;-61
2021/08/10 09:06:12;;;;;;;10.35;4.60;;;21.10;99.90;;;;;;5029876;28;20038;-61
2021/08/10 09:08:39;;;;;;;8.82;3.95;;;21.60;99.90;;;;;;5029305;28;20519;-60
2021/08/10 09:11:15;;;;;;;9.38;3.75;;;21.40;99.90;;;;;;5029848;28;20037;-60
2021/08/10 09:13:57;;;;;;;8.25;3.60;;;21.20;99.90;;;;;;5030263;28;20483;-61
2021/08/10 09:16:23;;;;;;;10.13;3.50;;;21.20;99.90;;;;;;5030028;28;20043;-61
2021/08/10 09:18:50;;;;;;;8.65;4.53;;;21.60;99.90;;;;;;5030444;28;20018;-60
2021/08/10 09:21:21;;;;;;;8.93;3.97;;;21.80;99.90;;;;;;5029888;28;20037;-60
2021/08/10 09:23:48;;;;;;;9.10;3.65;;;22.00;99.90;;;;;;5030305;28;20108;-61
2021/08/10 09:26:16;;;;;;;9.25;3.90;;;21.60;99.90;;;;;;5029380;28;20176;-61
2021/08/10 09:28:42;;;;;;;5.90;3.33;;;21.70;99.90;;;;;;5029563;28;20081;-61
2021/08/10 09:31:34;;;;;;;10.98;4.53;;;21.50;99.90;;;;;;5033446;28;20064;-60
2021/08/10 09:34:02;;;;;;;8.13;3.70;;;21.40;99.90;;;;;;5033943;28;20363;-63
2021/08/10 09:36:29;;;;;;;11.07;4.22;;;21.30;99.90;;;;;;5033213;28;20064;-61
2021/08/10 09:38:56;;;;;;;10.25;4.13;;;21.40;99.90;;;;;;5033647;28;20163;-62
2021/08/10 09:41:23;;;;;;;8.40;4.03;;;21.20;99.90;;;;;;5032955;28;20018;-63
2021/08/10 09:43:50;;;;;;;9.65;3.45;;;21.10;99.90;;;;;;5033213;28;20490;-65
2021/08/10 09:46:24;;;;;;;10.43;3.78;;;21.20;99.90;;;;;;5033071;28;20025;-62
2021/08/10 09:48:50;;;;;;;6.68;3.30;;;21.10;99.90;;;;;;5033471;28;20025;-62
2021/08/10 09:51:18;;;;;;;9.70;2.90;;;20.90;99.90;;;;;;5032568;28;20113;-62
2021/08/10 09:53:53;;;;;;;6.45;3.08;;;20.70;99.90;;;;;;5033795;28;20037;-61
2021/08/10 09:56:19;;;;;;;8.20;3.47;;;20.60;99.90;;;;;;5032523;28;20487;-60
2021/08/10 09:58:57;;;;;;;9.77;3.40;;;20.80;99.90;;;;;;5031507;28;20036;-61
2021/08/10 10:01:54;;;;;;;7.35;3.33;;;21.20;99.90;;;;;;5032469;28;20131;-61
2021/08/10 10:04:28;;;;;;;19.13;7.35;;;21.90;99.90;;;;;;5033180;28;20506;-62
2021/08/10 10:07:07;;;;;;;8.05;3.17;;;22.40;99.90;;;;;;5032496;28;20030;-62
2021/08/10 10:09:34;;;;;;;7.57;3.10;;;22.70;99.90;;;;;;5033368;28;20029;-63
2021/08/10 10:12:01;;;;;;;8.43;3.20;;;22.80;99.90;;;;;;5031199;28;20108;-60
2021/08/10 10:14:28;;;;;;;7.03;2.53;;;22.60;99.90;;;;;;5033101;28;20033;-62
2021/08/10 10:16:55;;;;;;;6.07;2.55;;;22.20;99.90;;;;;;5032466;28;20021;-61
2021/08/10 10:19:22;;;;;;;7.43;3.50;;;22.20;99.90;;;;;;5033261;28;20053;-62
2021/08/10 10:22:03;;;;;;;7.18;2.95;;;22.10;99.90;;;;;;5032119;28;20021;-62
2021/08/10 10:24:35;;;;;;;12.75;3.70;;;22.10;99.90;;;;;;5033069;28;20048;-62
2021/08/10 10:27:03;;;;;;;12.57;2.95;;;22.30;99.90;;;;;;5018231;28;20104;-60
2021/08/10 10:29:30;;;;;;;7.22;3.20;;;22.40;99.90;;;;;;5033085;28;20064;-62
2021/08/10 10:31:57;;;;;;;6.72;2.72;;;22.20;99.90;;;;;;5031780;28;20472;-61
2021/08/10 10:34:23;;;;;;;8.35;2.72;;;22.00;99.90;;;;;;5032732;28;20069;-61
2021/08/10 10:36:49;;;;;;;5.40;3.05;;;22.10;99.90;;;;;;5031966;28;20120;-62
2021/08/10 10:39:41;;;;;;;6.95;3.00;;;22.20;99.90;;;;;;5033006;28;20060;-63
2021/08/10 10:42:13;;;;;;;8.07;3.20;;;22.30;99.90;;;;;;5030267;28;20060;-62
2021/08/10 10:44:42;;;;;;;12.50;3.40;;;22.30;99.90;;;;;;5032640;28;20372;-61
2021/08/10 10:47:27;;;;;;;5.93;3.40;;;22.50;99.90;;;;;;5031700;28;20040;-61
2021/08/10 10:49:56;;;;;;;8.88;3.28;;;22.60;99.90;;;;;;5032645;28;20044;-60
2021/08/10 10:52:25;;;;;;;6.55;3.00;;;22.70;99.90;;;;;;5031682;28;20039;-63
2021/08/10 10:54:54;;;;;;;12.27;3.85;;;22.90;99.90;;;;;;5032347;28;20072;-60
2021/08/10 10:57:29;;;;;;;6.10;3.53;;;23.20;99.90;;;;;;5030395;28;20040;-63
2021/08/10 11:00:16;;;;;;;11.02;3.47;;;23.00;99.90;;;;;;5029475;28;20033;-63
2021/08/10 11:02:44;;;;;;;6.05;2.55;;;22.70;99.90;;;;;;5031256;28;20029;-62
2021/08/10 11:05:21;;;;;;;5.93;2.60;;;22.90;99.90;;;;;;5029731;28;20434;-61
2021/08/10 11:07:53;;;;;;;8.07;3.10;;;23.00;99.90;;;;;;5031347;28;20132;-61
2021/08/10 11:10:45;;;;;;;8.18;2.78;;;23.20;99.90;;;;;;5032011;28;20083;-60
2021/08/10 11:13:17;;;;;;;10.20;3.47;;;23.30;99.90;;;;;;5031179;28;20368;-61
2021/08/10 11:15:46;;;;;;;7.75;2.78;;;23.40;99.90;;;;;;5030969;28;20571;-61
2021/08/10 11:18:11;;;;;;;10.57;2.88;;;23.60;99.90;;;;;;5031154;28;20026;-62
2021/08/10 11:20:39;;;;;;;3.22;2.50;;;23.50;99.90;;;;;;5031703;28;20088;-60
2021/08/10 11:25:50;;;;;;;34.08;18.23;;;23.60;99.90;;;;;;5019009;28;20037;-62
2021/08/10 11:28:29;;;;;;;6.47;2.65;;;23.60;99.90;;;;;;5030875;28;20094;-61
2021/08/10 11:31:03;;;;;;;5.80;2.40;;;23.70;99.90;;;;;;5032072;28;20765;-63
2021/08/10 11:33:32;;;;;;;5.90;2.90;;;23.90;99.90;;;;;;5029727;28;20519;-60
2021/08/10 11:36:12;;;;;;;6.60;2.95;;;24.10;99.90;;;;;;5031192;28;20087;-60
2021/08/10 11:38:44;;;;;;;4.57;2.67;;;24.10;99.90;;;;;;5030757;28;20034;-61
2021/08/10 11:41:30;;;;;;;7.80;2.90;;;23.80;99.90;;;;;;5031805;28;20398;-61
2021/08/10 11:43:59;;;;;;;4.60;2.70;;;23.70;99.90;;;;;;5030524;28;20049;-63
2021/08/10 11:46:37;;;;;;;4.47;2.70;;;23.40;99.90;;;;;;5030524;28;20128;-62
2021/08/10 11:49:08;;;;;;;7.85;2.90;;;23.40;99.90;;;;;;5031167;28;20041;-61
2021/08/10 11:51:41;;;;;;;9.60;2.78;;;23.70;99.90;;;;;;5029755;28;20025;-62
2021/08/10 11:54:08;;;;;;;5.53;2.58;;;23.80;99.90;;;;;;5031225;28;20479;-62
2021/08/10 11:56:35;;;;;;;6.53;3.15;;;23.80;99.90;;;;;;5030309;28;20041;-61
2021/08/10 11:59:11;;;;;;;9.95;2.95;;;23.70;99.90;;;;;;5030329;28;20128;-59
2021/08/10 12:01:39;;;;;;;4.90;2.35;;;23.70;99.90;;;;;;5017357;28;20446;-62
2021/08/10 12:04:13;;;;;;;6.15;2.63;;;23.80;99.90;;;;;;5030897;28;20120;-60
2021/08/10 12:06:40;;;;;;;5.20;2.55;;;23.70;99.90;;;;;;5029475;28;20095;-61
2021/08/10 12:09:07;;;;;;;11.60;3.58;;;23.50;99.90;;;;;;5031044;28;20064;-61
2021/08/10 12:11:33;;;;;;;6.88;2.88;;;23.30;99.90;;;;;;5030196;28;20095;-61
2021/08/10 12:14:17;;;;;;;6.82;2.50;;;23.50;99.90;;;;;;5031435;28;20065;-62
2021/08/10 12:17:06;;;;;;;4.60;2.25;;;23.80;99.90;;;;;;5030272;28;20395;-61
2021/08/10 12:19:42;;;;;;;5.70;2.45;;;23.90;99.90;;;;;;5028064;28;20541;-59
2021/08/10 12:22:26;;;;;;;4.13;2.53;;;24.00;99.90;;;;;;5016077;28;20483;-61
2021/08/10 12:24:59;;;;;;;6.95;2.78;;;24.00;99.90;;;;;;5030810;28;20026;-61
2021/08/10 12:27:33;;;;;;;6.60;2.70;;;23.80;99.90;;;;;;5009294;28;20041;-63
2021/08/10 12:30:00;;;;;;;5.55;2.40;;;24.00;99.90;;;;;;5030726;28;20099;-61
2021/08/10 12:32:29;;;;;;;7.00;2.30;;;23.90;99.90;;;;;;5029743;28;20476;-61
2021/08/10 12:34:55;;;;;;;3.05;1.98;;;23.90;99.90;;;;;;5030737;28;20172;-61
2021/08/10 12:37:28;;;;;;;4.53;2.28;;;23.90;99.90;;;;;;5029435;28;20077;-61
2021/08/10 12:39:54;;;;;;;3.67;2.35;;;23.80;99.90;;;;;;5030544;28;20076;-61
2021/08/10 12:42:20;;;;;;;5.82;2.30;;;23.80;99.90;;;;;;5029689;28;20025;-61
2021/08/10 12:44:50;;;;;;;7.35;2.90;;;23.80;99.90;;;;;;5030756;28;20061;-61
2021/08/10 12:47:16;;;;;;;4.65;2.30;;;23.70;99.90;;;;;;5028484;28;20380;-61
2021/08/10 12:49:45;;;;;;;8.20;2.75;;;23.70;99.90;;;;;;5030641;28;20075;-61